createdAt,value
2023-04-19T00:01:01.705Z,12.04
2023-04-19T00:02:03.372Z,12.06
2023-04-19T00:03:07.001Z,12.10
2023-04-19T00:04:08.881Z,12.13
2023-04-19T00:05:12.060Z,12.17
2023-04-19T00:06:15.220Z,12.21
2023-04-19T00:07:18.650Z,12.25
2023-04-19T00:08:20.300Z,12.29
2023-04-19T00:09:21.940Z,12.32
2023-04-19T00:10:23.559Z,12.35
2023-04-19T00:11:25.635Z,12.38
2023-04-19T00:12:27.240Z,12.41
2023-04-19T00:13:28.773Z,12.42
2023-04-19T00:14:30.375Z,12.39
2023-04-19T00:15:32.040Z,12.37
2023-04-19T00:16:33.597Z,12.34
2023-04-19T00:17:35.390Z,12.35
2023-04-19T00:18:38.820Z,12.37
2023-04-19T00:19:40.393Z,12.36
2023-04-19T00:20:41.909Z,12.34
2023-04-19T00:21:43.501Z,12.33
2023-04-19T00:22:45.056Z,12.38
2023-04-19T00:23:46.629Z,12.43
2023-04-19T00:24:48.131Z,12.39
2023-04-19T00:25:49.868Z,12.34
2023-04-19T00:26:51.363Z,12.31
2023-04-19T00:27:52.907Z,12.27
2023-04-19T00:28:54.850Z,12.27
2023-04-19T00:29:57.693Z,12.24
2023-04-19T00:30:59.316Z,12.22
2023-04-19T00:32:00.845Z,12.25
2023-04-19T00:33:02.558Z,12.21
2023-04-19T00:34:04.129Z,12.19
2023-04-19T00:35:06.220Z,12.17
2023-04-19T00:36:08.064Z,12.05
2023-04-19T00:37:11.056Z,11.88
2023-04-19T00:38:12.711Z,11.81
2023-04-19T00:39:15.181Z,11.82
2023-04-19T00:40:16.721Z,11.87
2023-04-19T00:41:18.298Z,11.88
2023-04-19T00:42:19.836Z,11.88
2023-04-19T00:43:21.383Z,11.81
2023-04-19T00:44:23.632Z,11.79
2023-04-19T00:45:26.283Z,11.80
2023-04-19T00:46:27.991Z,11.84
2023-04-19T00:47:30.550Z,11.86
2023-04-19T00:48:32.243Z,11.92
2023-04-19T00:49:34.070Z,11.97
2023-04-19T00:50:36.175Z,12.00
2023-04-19T00:51:38.322Z,12.00
2023-04-19T00:52:40.405Z,11.93
2023-04-19T00:53:42.077Z,11.89
2023-04-19T00:54:45.234Z,11.84
2023-04-19T00:55:48.044Z,11.85
2023-04-19T00:56:50.141Z,11.71
2023-04-19T00:57:52.249Z,11.75
2023-04-19T00:58:54.438Z,11.75
2023-04-19T00:59:57.183Z,11.76
2023-04-19T01:00:59.993Z,11.77
2023-04-19T01:02:02.072Z,11.80
2023-04-19T01:03:04.334Z,11.79
2023-04-19T01:04:06.488Z,11.77
2023-04-19T01:05:08.598Z,11.75
2023-04-19T01:06:10.400Z,11.78
2023-04-19T01:07:11.967Z,11.79
2023-04-19T01:08:13.555Z,11.81
2023-04-19T01:09:15.294Z,11.87
2023-04-19T01:10:16.926Z,11.91
2023-04-19T01:11:18.441Z,11.93
2023-04-19T01:12:20.171Z,11.94
2023-04-19T01:13:21.982Z,11.94
2023-04-19T01:14:23.557Z,11.94
2023-04-19T01:15:25.095Z,11.92
2023-04-19T01:16:28.059Z,11.94
2023-04-19T01:17:32.189Z,12.00
2023-04-19T01:18:37.494Z,11.99
2023-04-19T01:19:39.412Z,11.90
2023-04-19T01:20:41.008Z,11.93
2023-04-19T01:21:43.825Z,12.00
2023-04-19T01:22:45.583Z,11.95
2023-04-19T01:23:47.150Z,11.91
2023-04-19T01:24:48.706Z,11.93
2023-04-19T01:25:50.294Z,11.98
2023-04-19T01:26:51.887Z,12.04
2023-04-19T01:27:53.403Z,12.09
2023-04-19T01:28:55.034Z,12.13
2023-04-19T01:29:56.641Z,12.12
2023-04-19T01:30:58.283Z,12.10
2023-04-19T01:31:59.836Z,12.13
2023-04-19T01:33:01.469Z,12.17
2023-04-19T01:34:03.013Z,12.12
2023-04-19T01:35:05.180Z,12.05
2023-04-19T01:36:07.270Z,12.02
2023-04-19T01:37:09.172Z,12.03
2023-04-19T01:38:10.892Z,12.05
2023-04-19T01:39:12.439Z,12.08
2023-04-19T01:40:14.290Z,12.06
2023-04-19T01:41:16.047Z,12.01
2023-04-19T01:42:17.620Z,12.00
2023-04-19T01:43:19.147Z,11.88
2023-04-19T01:44:20.699Z,11.86
2023-04-19T01:45:22.260Z,11.83
2023-04-19T01:46:23.965Z,11.88
2023-04-19T01:47:25.846Z,11.90
2023-04-19T01:48:27.455Z,11.85
2023-04-19T01:49:29.036Z,11.87
2023-04-19T01:50:31.897Z,11.89
2023-04-19T01:51:33.406Z,11.95
2023-04-19T01:52:34.915Z,12.02
2023-04-19T01:53:36.438Z,12.06
2023-04-19T01:54:37.948Z,12.10
2023-04-19T01:55:39.646Z,12.15
2023-04-19T01:56:41.239Z,12.19
2023-04-19T01:57:42.782Z,12.23
2023-04-19T01:58:44.281Z,12.28
2023-04-19T01:59:45.817Z,12.30
2023-04-19T02:00:47.447Z,12.35
2023-04-19T02:01:49.032Z,12.39
2023-04-19T02:02:50.800Z,12.42
2023-04-19T02:03:52.584Z,12.40
2023-04-19T02:04:54.360Z,12.31
2023-04-19T02:05:55.926Z,12.31
2023-04-19T02:06:57.441Z,12.33
2023-04-19T02:07:59.008Z,12.39
2023-04-19T02:09:00.631Z,12.42
2023-04-19T02:10:02.307Z,12.47
2023-04-19T02:11:10.419Z,12.54
2023-04-19T02:12:11.943Z,12.55
2023-04-19T02:13:13.470Z,12.49
2023-04-19T02:14:15.258Z,12.48
2023-04-19T02:15:17.020Z,12.49
2023-04-19T02:16:19.048Z,12.51
2023-04-19T02:17:20.631Z,12.53
2023-04-19T02:18:22.514Z,12.53
2023-04-19T02:19:24.302Z,12.49
2023-04-19T02:20:25.823Z,12.37
2023-04-19T02:21:27.632Z,12.30
2023-04-19T02:22:29.149Z,12.22
2023-04-19T02:23:30.839Z,12.28
2023-04-19T02:24:32.371Z,12.33
2023-04-19T02:25:34.000Z,12.35
2023-04-19T02:26:35.566Z,12.33
2023-04-19T02:27:37.085Z,12.27
2023-04-19T02:28:39.284Z,12.19
2023-04-19T02:29:41.175Z,12.18
2023-04-19T02:30:42.965Z,12.15
2023-04-19T02:31:46.547Z,12.12
2023-04-19T02:32:49.320Z,12.10
2023-04-19T02:33:50.899Z,12.00
2023-04-19T02:34:52.442Z,12.01
2023-04-19T02:35:54.015Z,12.04
2023-04-19T02:36:55.578Z,12.07
2023-04-19T02:37:57.143Z,12.04
2023-04-19T02:38:59.370Z,11.98
2023-04-19T02:40:00.912Z,11.94
2023-04-19T02:41:04.424Z,11.96
2023-04-19T02:42:06.035Z,11.99
2023-04-19T02:43:07.644Z,12.03
2023-04-19T02:44:09.238Z,12.01
2023-04-19T02:45:10.990Z,11.94
2023-04-19T02:46:12.578Z,11.91
2023-04-19T02:47:14.162Z,11.92
2023-04-19T02:48:15.791Z,11.93
2023-04-19T02:49:17.809Z,11.96
2023-04-19T02:50:19.340Z,12.00
2023-04-19T02:51:20.924Z,11.97
2023-04-19T02:52:22.495Z,11.91
2023-04-19T02:53:24.153Z,11.84
2023-04-19T02:54:25.732Z,11.84
2023-04-19T02:55:27.328Z,11.87
2023-04-19T02:56:28.944Z,11.87
2023-04-19T02:57:30.664Z,11.83
2023-04-19T02:58:32.202Z,11.68
2023-04-19T02:59:34.013Z,11.60
2023-04-19T03:00:35.848Z,11.62
2023-04-19T03:01:37.633Z,11.55
2023-04-19T03:02:39.617Z,11.50
2023-04-19T03:03:41.400Z,11.53
2023-04-19T03:04:43.640Z,11.59
2023-04-19T03:05:45.314Z,11.65
2023-04-19T03:06:46.854Z,11.70
2023-04-19T03:07:48.394Z,11.77
2023-04-19T03:08:50.137Z,11.82
2023-04-19T03:09:51.664Z,11.82
2023-04-19T03:10:53.210Z,11.81
2023-04-19T03:11:54.876Z,11.80
2023-04-19T03:12:56.423Z,11.79
2023-04-19T03:13:57.949Z,11.83
2023-04-19T03:14:59.484Z,11.83
2023-04-19T03:16:01.055Z,11.81
2023-04-19T03:17:03.236Z,11.76
2023-04-19T03:18:04.922Z,11.77
2023-04-19T03:19:06.491Z,11.77
2023-04-19T03:20:11.945Z,11.69
2023-04-19T03:21:13.445Z,11.67
2023-04-19T03:22:15.019Z,11.65
2023-04-19T03:23:16.650Z,11.66
2023-04-19T03:24:28.089Z,11.62
2023-04-19T03:25:29.687Z,11.58
2023-04-19T03:26:31.444Z,11.52
2023-04-19T03:27:37.125Z,11.50
2023-04-19T03:28:38.692Z,11.55
2023-04-19T03:29:40.453Z,11.55
2023-04-19T03:30:42.376Z,11.51
2023-04-19T03:31:44.044Z,11.45
2023-04-19T03:32:48.211Z,11.43
2023-04-19T03:33:49.802Z,11.37
2023-04-19T03:34:51.356Z,11.38
2023-04-19T03:35:52.854Z,11.42
2023-04-19T03:36:55.196Z,11.44
2023-04-19T03:37:56.744Z,11.47
2023-04-19T03:38:58.336Z,11.50
2023-04-19T03:39:59.986Z,11.55
2023-04-19T03:41:01.535Z,11.57
2023-04-19T03:42:03.120Z,11.57
2023-04-19T03:43:04.762Z,11.55
2023-04-19T03:44:06.372Z,11.53
2023-04-19T03:45:08.408Z,11.50
2023-04-19T03:46:10.052Z,11.39
2023-04-19T03:47:11.701Z,11.31
2023-04-19T03:48:13.324Z,11.31
2023-04-19T03:49:15.170Z,11.23
2023-04-19T03:50:16.818Z,11.11
2023-04-19T03:51:18.770Z,11.03
2023-04-19T03:52:20.362Z,11.08
2023-04-19T03:53:21.947Z,11.15
2023-04-19T03:54:23.528Z,11.21
2023-04-19T03:55:25.058Z,11.24
2023-04-19T03:56:26.573Z,11.20
2023-04-19T03:57:28.127Z,11.17
2023-04-19T03:58:29.649Z,11.18
2023-04-19T03:59:31.388Z,11.15
2023-04-19T04:00:32.895Z,11.13
2023-04-19T04:01:34.479Z,11.17
2023-04-19T04:02:39.838Z,11.22
2023-04-19T04:03:41.826Z,11.26
2023-04-19T04:04:43.810Z,11.17
2023-04-19T04:05:45.598Z,11.12
2023-04-19T04:06:47.101Z,11.12
2023-04-19T04:07:48.649Z,11.16
2023-04-19T04:08:50.379Z,11.22
2023-04-19T04:09:51.936Z,11.25
2023-04-19T04:10:54.830Z,11.28
2023-04-19T04:11:56.409Z,11.25
2023-04-19T04:12:57.934Z,11.10
2023-04-19T04:13:59.550Z,10.95
2023-04-19T04:15:01.245Z,11.01
2023-04-19T04:16:03.036Z,11.09
2023-04-19T04:17:07.036Z,11.14
2023-04-19T04:18:09.188Z,11.17
2023-04-19T04:19:10.848Z,11.08
2023-04-19T04:20:13.649Z,10.93
2023-04-19T04:21:15.267Z,10.82
2023-04-19T04:22:17.311Z,10.78
2023-04-19T04:23:21.463Z,10.85
2023-04-19T04:24:22.988Z,10.94
2023-04-19T04:25:25.946Z,11.01
2023-04-19T04:26:30.800Z,11.02
2023-04-19T04:27:33.303Z,11.09
2023-04-19T04:28:34.866Z,11.14
2023-04-19T04:29:37.460Z,11.23
2023-04-19T04:30:40.913Z,11.26
2023-04-19T04:31:42.719Z,11.31
2023-04-19T04:32:45.106Z,11.28
2023-04-19T04:33:46.709Z,11.19
2023-04-19T04:34:51.374Z,11.13
2023-04-19T04:35:54.205Z,11.22
2023-04-19T04:36:55.861Z,11.30
2023-04-19T04:37:57.408Z,11.43
2023-04-19T04:39:01.962Z,11.65
2023-04-19T04:40:08.162Z,11.90
2023-04-19T04:41:12.194Z,12.05
2023-04-19T04:42:13.723Z,12.20
2023-04-19T04:43:15.250Z,12.32
2023-04-19T04:44:16.786Z,12.39
2023-04-19T04:45:18.665Z,12.48
2023-04-19T04:46:20.384Z,12.54
2023-04-19T04:47:22.023Z,12.62
2023-04-19T04:48:24.243Z,12.68
2023-04-19T04:49:27.866Z,12.71
2023-04-19T04:50:29.620Z,12.75
2023-04-19T04:51:32.441Z,12.76
2023-04-19T04:52:34.237Z,12.67
2023-04-19T04:53:35.800Z,12.51
2023-04-19T04:54:37.342Z,12.40
2023-04-19T04:55:38.924Z,12.35
2023-04-19T04:56:40.730Z,12.26
2023-04-19T04:57:42.256Z,12.32
2023-04-19T04:58:43.760Z,12.38
2023-04-19T04:59:46.324Z,12.45
2023-04-19T05:00:49.137Z,12.54
2023-04-19T05:01:50.853Z,12.58
2023-04-19T05:02:52.544Z,12.59
2023-04-19T05:03:54.170Z,12.61
2023-04-19T05:04:55.960Z,12.66
2023-04-19T05:05:57.741Z,12.64
2023-04-19T05:06:59.319Z,12.65
2023-04-19T05:08:01.295Z,12.66
2023-04-19T05:09:03.348Z,12.62
2023-04-19T05:10:05.353Z,12.66
2023-04-19T05:11:06.965Z,12.71
2023-04-19T05:12:08.491Z,12.72
2023-04-19T05:13:10.044Z,12.74
2023-04-19T05:14:12.850Z,12.76
2023-04-19T05:15:14.557Z,12.77
2023-04-19T05:16:16.297Z,12.80
2023-04-19T05:17:17.896Z,12.75
2023-04-19T05:18:19.445Z,12.72
2023-04-19T05:19:21.012Z,12.73
2023-04-19T05:20:22.645Z,12.79
2023-04-19T05:21:24.252Z,12.81
2023-04-19T05:22:26.490Z,12.81
2023-04-19T05:23:28.020Z,12.86
2023-04-19T05:24:29.708Z,12.87
2023-04-19T05:25:31.299Z,12.91
2023-04-19T05:26:38.431Z,12.91
2023-04-19T05:27:40.116Z,12.93
2023-04-19T05:28:42.342Z,12.95
2023-04-19T05:29:43.933Z,12.99
2023-04-19T05:30:45.878Z,12.98
2023-04-19T05:31:47.549Z,13.03
2023-04-19T05:32:49.410Z,13.07
2023-04-19T05:33:50.952Z,13.14
2023-04-19T05:34:52.502Z,13.13
2023-04-19T05:35:54.052Z,13.12
2023-04-19T05:36:55.887Z,13.12
2023-04-19T05:37:57.478Z,13.11
2023-04-19T05:38:59.040Z,13.03
2023-04-19T05:40:00.735Z,13.04
2023-04-19T05:41:03.778Z,13.05
2023-04-19T05:42:05.424Z,13.02
2023-04-19T05:43:07.044Z,12.97
2023-04-19T05:44:08.618Z,12.94
2023-04-19T05:45:10.679Z,12.95
2023-04-19T05:46:12.256Z,13.01
2023-04-19T05:47:13.987Z,13.08
2023-04-19T05:48:15.550Z,13.13
2023-04-19T05:49:17.115Z,13.17
2023-04-19T05:50:20.631Z,13.20
2023-04-19T05:51:22.217Z,13.21
2023-04-19T05:52:23.803Z,13.27
2023-04-19T05:53:25.477Z,13.31
2023-04-19T05:54:29.229Z,13.26
2023-04-19T05:55:31.108Z,13.21
2023-04-19T05:56:32.858Z,13.21
2023-04-19T05:57:34.746Z,13.30
2023-04-19T05:58:36.785Z,13.41
2023-04-19T05:59:38.402Z,13.40
2023-04-19T06:00:40.048Z,13.40
2023-04-19T06:01:41.669Z,13.41
2023-04-19T06:02:44.719Z,13.40
2023-04-19T06:03:46.996Z,13.40
2023-04-19T06:04:49.605Z,13.43
2023-04-19T06:05:51.388Z,13.44
2023-04-19T06:06:53.496Z,13.46
2023-04-19T06:08:02.559Z,13.51
2023-04-19T06:09:04.831Z,13.55
2023-04-19T06:10:07.261Z,13.57
2023-04-19T06:11:20.277Z,13.61
2023-04-19T06:12:28.398Z,13.61
2023-04-19T06:13:29.999Z,13.61
2023-04-19T06:14:31.611Z,13.63
2023-04-19T06:15:33.234Z,13.66
2023-04-19T06:16:34.821Z,13.65
2023-04-19T06:17:36.448Z,13.69
2023-04-19T06:18:38.030Z,13.69
2023-04-19T06:19:39.616Z,13.64
2023-04-19T06:20:41.275Z,13.61
2023-04-19T06:21:43.089Z,13.60
2023-04-19T06:22:48.873Z,13.62
2023-04-19T06:23:50.504Z,13.64
2023-04-19T06:24:52.070Z,13.71
2023-04-19T06:25:53.632Z,13.86
2023-04-19T06:26:55.184Z,13.93
2023-04-19T06:27:56.785Z,14.05
2023-04-19T06:28:58.397Z,14.26
2023-04-19T06:30:01.035Z,14.41
2023-04-19T06:31:02.886Z,14.59
2023-04-19T06:32:04.782Z,14.71
2023-04-19T06:33:06.536Z,14.71
2023-04-19T06:34:08.113Z,14.80
2023-04-19T06:35:09.946Z,14.85
2023-04-19T06:36:11.574Z,14.97
2023-04-19T06:37:13.208Z,15.12
2023-04-19T06:38:14.774Z,15.23
2023-04-19T06:39:17.913Z,15.35
2023-04-19T06:40:19.558Z,15.50
2023-04-19T06:41:21.114Z,15.63
2023-04-19T06:42:23.561Z,15.81
2023-04-19T06:43:25.770Z,15.78
2023-04-19T06:44:27.938Z,15.56
2023-04-19T06:45:29.909Z,15.30
2023-04-19T06:46:31.782Z,15.44
2023-04-19T06:47:37.051Z,15.63
2023-04-19T06:48:38.824Z,15.81
2023-04-19T06:49:40.363Z,15.84
2023-04-19T06:50:41.953Z,15.88
2023-04-19T06:51:43.585Z,15.98
2023-04-19T06:52:45.147Z,16.02
2023-04-19T06:53:46.736Z,16.03
2023-04-19T06:54:49.400Z,15.94
2023-04-19T06:55:57.829Z,15.90
2023-04-19T06:56:59.345Z,15.88
2023-04-19T06:58:01.013Z,15.74
2023-04-19T06:59:02.727Z,15.41
2023-04-19T07:00:06.985Z,15.22
2023-04-19T07:01:08.720Z,15.16
2023-04-19T07:02:10.567Z,15.09
2023-04-19T07:03:12.304Z,15.16
2023-04-19T07:04:14.887Z,15.20
2023-04-19T07:05:17.173Z,15.22
2023-04-19T07:06:18.679Z,15.14
2023-04-19T07:07:20.248Z,15.17
2023-04-19T07:08:23.470Z,15.00
2023-04-19T07:09:25.222Z,14.88
2023-04-19T07:10:26.942Z,14.86
2023-04-19T07:11:28.603Z,14.73
2023-04-19T07:12:30.152Z,14.72
2023-04-19T07:13:31.782Z,14.76
2023-04-19T07:14:33.732Z,14.84
2023-04-19T07:15:35.558Z,14.75
2023-04-19T07:16:37.504Z,14.53
2023-04-19T07:17:39.162Z,14.25
2023-04-19T07:18:41.264Z,14.14
2023-04-19T07:19:47.654Z,14.11
2023-04-19T07:20:49.592Z,14.11
2023-04-19T07:21:51.378Z,14.20
2023-04-19T07:22:52.931Z,14.28
2023-04-19T07:23:54.512Z,14.41
2023-04-19T07:24:56.126Z,14.50
2023-04-19T07:25:57.682Z,14.45
2023-04-19T07:26:59.356Z,14.48
2023-04-19T07:28:00.923Z,14.57
2023-04-19T07:29:03.246Z,14.60
2023-04-19T07:30:05.300Z,14.72
2023-04-19T07:31:06.888Z,14.79
2023-04-19T07:32:08.760Z,14.76
2023-04-19T07:33:10.998Z,14.78
2023-04-19T07:34:12.620Z,14.90
2023-04-19T07:35:14.206Z,14.92
2023-04-19T07:36:15.846Z,14.89
2023-04-19T07:37:17.591Z,14.93
2023-04-19T07:38:19.308Z,14.90
2023-04-19T07:39:20.904Z,14.68
2023-04-19T07:40:22.495Z,14.59
2023-04-19T07:41:24.023Z,14.55
2023-04-19T07:42:26.017Z,14.46
2023-04-19T07:43:30.313Z,14.41
2023-04-19T07:44:32.393Z,14.53
2023-04-19T07:45:34.138Z,14.42
2023-04-19T07:46:35.781Z,14.39
2023-04-19T07:47:37.492Z,14.47
2023-04-19T07:48:39.170Z,14.64
2023-04-19T07:49:40.772Z,14.74
2023-04-19T07:50:42.298Z,14.82
2023-04-19T07:51:43.873Z,14.98
2023-04-19T07:52:45.510Z,15.04
2023-04-19T07:53:47.683Z,15.11
2023-04-19T07:54:49.294Z,15.13
2023-04-19T07:55:51.206Z,15.21
2023-04-19T07:56:52.860Z,15.39
2023-04-19T07:57:54.490Z,15.62
2023-04-19T07:59:06.725Z,15.64
2023-04-19T08:00:10.508Z,15.75
2023-04-19T08:01:12.240Z,15.80
2023-04-19T08:02:14.088Z,15.89
2023-04-19T08:03:16.068Z,15.95
2023-04-19T08:04:20.227Z,15.95
2023-04-19T08:05:23.490Z,15.83
2023-04-19T08:06:26.999Z,15.91
2023-04-19T08:07:28.639Z,15.68
2023-04-19T08:08:30.831Z,15.61
2023-04-19T08:09:34.436Z,15.89
2023-04-19T08:10:36.043Z,16.00
2023-04-19T08:11:37.575Z,16.01
2023-04-19T08:12:47.339Z,15.96
2023-04-19T08:14:26.023Z,15.98
2023-04-19T08:15:38.126Z,16.20
2023-04-19T08:17:19.555Z,16.19
2023-04-19T08:18:05.163Z,16.19
2023-04-19T08:19:06.976Z,16.05
2023-04-19T08:20:11.051Z,16.05
2023-04-19T08:21:12.574Z,16.20
2023-04-19T08:22:14.139Z,16.48
2023-04-19T08:23:23.948Z,16.80
2023-04-19T08:24:30.360Z,16.86
2023-04-19T08:25:32.324Z,16.38
2023-04-19T08:26:33.871Z,16.39
2023-04-19T08:27:35.870Z,16.53
2023-04-19T08:28:37.459Z,16.87
2023-04-19T08:29:39.851Z,17.10
2023-04-19T08:30:41.463Z,17.28
2023-04-19T08:31:44.517Z,17.46
2023-04-19T08:32:46.433Z,17.39
2023-04-19T08:33:48.225Z,17.12
2023-04-19T08:34:50.016Z,16.93
2023-04-19T08:35:51.655Z,16.78
2023-04-19T08:37:03.607Z,16.72
2023-04-19T08:38:05.793Z,16.60
2023-04-19T08:39:14.809Z,16.72
2023-04-19T08:40:31.603Z,16.98
2023-04-19T08:41:33.171Z,17.24
2023-04-19T08:42:36.795Z,17.39
2023-04-19T08:43:41.734Z,17.48
2023-04-19T08:44:59.694Z,17.54
2023-04-19T08:46:07.920Z,17.70
2023-04-19T08:47:15.228Z,17.57
2023-04-19T08:48:23.795Z,17.28
2023-04-19T08:49:26.057Z,17.23
2023-04-19T08:50:35.412Z,17.46
2023-04-19T08:51:43.304Z,17.67
2023-04-19T08:52:54.929Z,17.87
2023-04-19T08:54:01.120Z,18.05
2023-04-19T08:55:08.449Z,18.21
2023-04-19T08:56:18.090Z,18.36
2023-04-19T08:57:32.163Z,18.43
2023-04-19T08:59:39.379Z,18.65
2023-04-19T09:00:41.485Z,18.75
2023-04-19T09:01:44.766Z,18.73
2023-04-19T09:02:51.487Z,18.62
2023-04-19T09:04:06.706Z,18.59
2023-04-19T09:05:13.828Z,18.47
2023-04-19T09:06:15.956Z,18.35
2023-04-19T09:07:27.850Z,18.37
2023-04-19T09:08:32.659Z,18.36
2023-04-19T09:09:41.047Z,18.23
2023-04-19T09:10:59.318Z,18.08
2023-04-19T09:12:00.866Z,18.01
2023-04-19T09:13:04.584Z,18.03
2023-04-19T09:14:11.190Z,18.27
2023-04-19T09:15:12.788Z,18.47
2023-04-19T09:16:25.221Z,18.64
2023-04-19T09:17:27.004Z,18.72
2023-04-19T09:18:31.416Z,18.74
2023-04-19T09:19:54.966Z,18.79
2023-04-19T09:21:00.423Z,18.82
2023-04-19T09:22:13.445Z,18.82
2023-04-19T09:23:18.750Z,18.88
2023-04-19T09:25:04.340Z,18.86
2023-04-19T09:26:22.191Z,18.72
2023-04-19T09:27:33.938Z,18.92
2023-04-19T09:28:35.529Z,18.75
2023-04-19T09:29:37.093Z,18.62
2023-04-19T09:30:46.916Z,18.64
2023-04-19T09:32:00.080Z,18.65
2023-04-19T09:33:01.890Z,18.66
2023-04-19T09:34:14.739Z,18.64
2023-04-19T09:35:16.725Z,18.47
2023-04-19T09:36:31.904Z,18.43
2023-04-19T09:38:01.368Z,18.37
2023-04-19T09:38:55.162Z,18.49
2023-04-19T09:39:57.046Z,18.60
2023-04-19T09:41:08.919Z,18.73
2023-04-19T09:42:10.462Z,18.88
2023-04-19T09:43:45.285Z,18.88
2023-04-19T09:45:12.544Z,18.96
2023-04-19T09:45:56.657Z,18.87
2023-04-19T09:46:58.261Z,18.86
2023-04-19T09:48:05.200Z,18.93
2023-04-19T09:49:41.620Z,18.88
2023-04-19T09:51:02.536Z,18.93
2023-04-19T09:52:07.399Z,18.87
2023-04-19T09:53:10.811Z,18.82
2023-04-19T09:54:13.874Z,18.80
2023-04-19T09:55:26.850Z,18.70
2023-04-19T09:56:30.634Z,18.84
2023-04-19T09:57:33.717Z,18.94
2023-04-19T09:58:48.996Z,18.99
2023-04-19T09:59:52.578Z,18.98
2023-04-19T10:01:06.570Z,19.03
2023-04-19T10:02:14.924Z,18.96
2023-04-19T10:03:17.953Z,18.92
2023-04-19T10:04:32.679Z,19.02
2023-04-19T10:05:41.541Z,18.88
2023-04-19T10:07:07.001Z,18.39
2023-04-19T10:08:07.993Z,17.90
2023-04-19T10:09:10.820Z,17.71
2023-04-19T10:10:20.437Z,17.48
2023-04-19T10:11:26.889Z,17.24
2023-04-19T10:12:58.466Z,17.10
2023-04-19T10:13:59.944Z,17.00
2023-04-19T10:15:01.635Z,16.95
2023-04-19T10:16:15.543Z,16.83
2023-04-19T10:17:21.022Z,16.93
2023-04-19T10:18:23.256Z,17.05
2023-04-19T10:19:25.696Z,16.92
2023-04-19T10:20:42.158Z,16.90
2023-04-19T10:21:46.539Z,16.89
2023-04-19T10:22:48.740Z,16.85
2023-04-19T10:23:50.695Z,16.68
2023-04-19T10:25:17.674Z,16.68
2023-04-19T10:26:19.499Z,16.63
2023-04-19T10:27:25.765Z,16.64
2023-04-19T10:28:34.186Z,16.54
2023-04-19T10:29:55.697Z,16.47
2023-04-19T10:31:02.643Z,16.41
2023-04-19T10:32:06.222Z,16.52
2023-04-19T10:33:07.997Z,16.57
2023-04-19T10:34:12.698Z,16.61
2023-04-19T10:35:24.710Z,16.57
2023-04-19T10:36:27.725Z,16.51
2023-04-19T10:37:31.813Z,16.50
2023-04-19T10:38:37.629Z,16.61
2023-04-19T10:39:45.805Z,16.73
2023-04-19T10:41:01.679Z,16.77
2023-04-19T10:42:03.320Z,16.74
2023-04-19T10:43:10.676Z,16.56
2023-04-19T10:44:12.354Z,16.57
2023-04-19T10:45:35.997Z,16.73
2023-04-19T10:46:41.989Z,16.91
2023-04-19T10:47:46.592Z,17.05
2023-04-19T10:48:57.123Z,17.21
2023-04-19T10:49:58.734Z,17.20
2023-04-19T10:51:16.041Z,17.23
2023-04-19T10:52:29.567Z,17.36
2023-04-19T10:54:00.844Z,17.51
2023-04-19T10:55:06.054Z,17.49
2023-04-19T10:56:07.644Z,17.55
2023-04-19T10:57:11.259Z,17.54
2023-04-19T10:58:13.134Z,17.54
2023-04-19T10:59:21.516Z,17.46
2023-04-19T11:00:25.750Z,17.40
2023-04-19T11:01:46.269Z,17.42
2023-04-19T11:02:47.981Z,17.51
2023-04-19T11:03:49.692Z,17.48
2023-04-19T11:04:51.242Z,17.42
2023-04-19T11:06:23.051Z,17.39
2023-04-19T11:07:25.001Z,17.37
2023-04-19T11:08:26.826Z,17.32
2023-04-19T11:09:30.817Z,17.36
2023-04-19T11:10:32.384Z,17.39
2023-04-19T11:11:37.392Z,17.54
2023-04-19T11:12:43.278Z,17.72
2023-04-19T11:13:47.242Z,17.72
2023-04-19T11:15:00.153Z,17.77
2023-04-19T11:16:08.369Z,17.81
2023-04-19T11:17:19.098Z,17.86
2023-04-19T11:18:20.728Z,18.00
2023-04-19T11:19:22.361Z,17.93
2023-04-19T11:20:24.519Z,17.72
2023-04-19T11:21:29.913Z,17.61
2023-04-19T11:22:35.447Z,17.47
2023-04-19T11:23:36.966Z,17.36
2023-04-19T11:24:38.525Z,17.32
2023-04-19T11:25:40.202Z,17.43
2023-04-19T11:26:46.134Z,17.51
2023-04-19T11:27:50.002Z,17.48
2023-04-19T11:28:53.111Z,17.40
2023-04-19T11:30:03.281Z,17.26
2023-04-19T11:31:05.500Z,17.20
2023-04-19T11:32:07.585Z,17.19
2023-04-19T11:33:12.581Z,17.21
2023-04-19T11:34:14.437Z,17.03
2023-04-19T11:35:20.733Z,16.94
2023-04-19T11:36:22.369Z,16.76
2023-04-19T11:37:24.012Z,16.80
2023-04-19T11:38:28.338Z,16.80
2023-04-19T11:39:30.228Z,16.72
2023-04-19T11:40:32.174Z,16.70
2023-04-19T11:41:39.832Z,16.56
2023-04-19T11:42:41.490Z,16.37
2023-04-19T11:43:45.309Z,16.14
2023-04-19T11:44:51.767Z,16.04
2023-04-19T11:45:54.262Z,16.01
2023-04-19T11:47:05.194Z,15.87
2023-04-19T11:48:10.035Z,15.69
2023-04-19T11:49:25.764Z,15.55
2023-04-19T11:50:46.034Z,15.39
2023-04-19T11:51:47.589Z,15.27
2023-04-19T11:52:49.572Z,15.17
2023-04-19T11:53:51.134Z,15.11
2023-04-19T11:54:53.769Z,15.11
2023-04-19T11:56:08.582Z,15.12
2023-04-19T11:57:10.118Z,15.11
2023-04-19T11:58:33.484Z,15.03
2023-04-19T11:59:36.454Z,14.94
2023-04-19T12:00:38.210Z,14.87
2023-04-19T12:01:41.393Z,14.86
2023-04-19T12:02:44.838Z,14.88
2023-04-19T12:03:49.752Z,14.90
2023-04-19T12:04:52.124Z,14.91
2023-04-19T12:06:17.881Z,14.94
2023-04-19T12:07:19.416Z,14.96
2023-04-19T12:08:32.095Z,15.04
2023-04-19T12:09:37.033Z,15.10
2023-04-19T12:10:38.600Z,15.21
2023-04-19T12:11:49.922Z,15.26
2023-04-19T12:12:51.508Z,15.35
2023-04-19T12:14:10.654Z,15.48
2023-04-19T12:15:12.252Z,15.58
2023-04-19T12:16:14.162Z,15.67
2023-04-19T12:17:15.921Z,15.71
2023-04-19T12:18:17.600Z,15.77
2023-04-19T12:19:20.436Z,15.83
2023-04-19T12:20:33.048Z,15.87
2023-04-19T12:21:34.558Z,15.90
2023-04-19T12:22:36.239Z,15.97
2023-04-19T12:23:37.842Z,16.01
2023-04-19T12:24:40.862Z,16.04
2023-04-19T12:25:44.652Z,16.07
2023-04-19T12:26:57.379Z,16.06
2023-04-19T12:28:01.105Z,16.04
2023-04-19T12:29:03.695Z,15.93
2023-04-19T12:30:05.936Z,15.92
2023-04-19T12:31:07.541Z,15.86
2023-04-19T12:32:10.882Z,15.77
2023-04-19T12:33:12.787Z,15.69
2023-04-19T12:34:14.396Z,15.57
2023-04-19T12:35:15.987Z,15.51
2023-04-19T12:36:17.642Z,15.47
2023-04-19T12:37:19.185Z,15.45
2023-04-19T12:38:20.851Z,15.47
2023-04-19T12:39:22.997Z,15.51
2023-04-19T12:40:25.782Z,15.41
2023-04-19T12:41:27.426Z,15.38
2023-04-19T12:42:29.296Z,15.38
2023-04-19T12:43:31.977Z,15.39
2023-04-19T12:44:33.601Z,15.36
2023-04-19T12:45:35.266Z,15.36
2023-04-19T12:46:37.074Z,15.33
2023-04-19T12:47:42.058Z,15.36
2023-04-19T12:48:43.615Z,15.41
2023-04-19T12:49:45.272Z,15.45
2023-04-19T12:50:46.823Z,15.49
2023-04-19T12:51:48.437Z,15.53
2023-04-19T12:52:53.228Z,15.46
2023-04-19T12:53:54.845Z,15.41
2023-04-19T12:54:56.542Z,15.45
2023-04-19T12:55:58.650Z,15.47
2023-04-19T12:57:03.270Z,15.44
2023-04-19T12:58:05.043Z,15.43
2023-04-19T12:59:06.619Z,15.34
2023-04-19T13:00:10.591Z,15.30
2023-04-19T13:01:12.212Z,15.36
2023-04-19T13:02:13.895Z,15.41
2023-04-19T13:03:16.411Z,15.41
2023-04-19T13:04:18.388Z,15.41
2023-04-19T13:05:20.811Z,15.40
2023-04-19T13:06:22.318Z,15.43
2023-04-19T13:07:23.882Z,15.49
2023-04-19T13:08:41.074Z,15.45
2023-04-19T13:09:46.147Z,15.50
2023-04-19T13:10:48.079Z,15.57
2023-04-19T13:11:49.620Z,15.60
2023-04-19T13:12:51.254Z,15.60
2023-04-19T13:13:52.958Z,15.62
2023-04-19T13:14:54.761Z,15.59
2023-04-19T13:15:56.344Z,15.59
2023-04-19T13:16:58.132Z,15.67
2023-04-19T13:17:59.943Z,15.83
2023-04-19T13:19:01.684Z,15.89
2023-04-19T13:20:04.019Z,15.95
2023-04-19T13:21:08.029Z,16.03
2023-04-19T13:22:10.234Z,16.15
2023-04-19T13:23:11.992Z,16.26
2023-04-19T13:24:13.673Z,16.32
2023-04-19T13:25:15.232Z,16.41
2023-04-19T13:26:16.761Z,16.42
2023-04-19T13:27:18.287Z,16.49
2023-04-19T13:28:19.920Z,16.55
2023-04-19T13:29:21.471Z,16.59
2023-04-19T13:30:22.997Z,16.61
2023-04-19T13:31:25.437Z,16.73
2023-04-19T13:32:27.193Z,16.73
2023-04-19T13:33:29.100Z,16.69
2023-04-19T13:34:31.190Z,16.75
2023-04-19T13:35:32.748Z,16.69
2023-04-19T13:36:34.331Z,16.62
2023-04-19T13:37:35.903Z,16.60
2023-04-19T13:38:37.489Z,16.60
2023-04-19T13:39:39.376Z,16.66
2023-04-19T13:40:40.922Z,16.66
2023-04-19T13:41:42.530Z,16.65